Time,TemperatureF,DewpointF,PressureIn,WindDirection,WindDirectionDegrees,WindSpeedMPH,WindSpeedGustMPH,Humidity,HourlyPrecipIn,Conditions,Clouds,dailyrainin,SolarRadiationWatts/m^2,SoftwareType,DateUTC
2013-02-17 00:16:00,25.3,16.0,29.71,NE,34,1.0,12.0,69,0.00,,,0.10,0,weatherlink.com 1.10,2013-02-17 05:16:00,
2013-02-17 00:31:00,25.2,16.0,29.71,North,360,3.0,9.0,68,0.00,,,0.10,0,weatherlink.com 1.10,2013-02-17 05:31:00,
2013-02-17 00:48:00,24.9,15.0,29.70,ENE,78,1.0,13.0,66,0.00,,,0.00,0,weatherlink.com 1.10,2013-02-17 05:48:00,
2013-02-17 01:05:00,24.7,14.0,29.70,North,355,12.0,14.0,63,0.00,,,0.00,0,weatherlink.com 1.10,2013-02-17 06:05:00,
2013-02-17 01:21:00,24.4,13.0,29.71,NE,38,1.0,14.0,61,0.00,,,0.00,0,weatherlink.com 1.10,2013-02-17 06:21:00,
2013-02-17 01:38:00,24.0,12.0,29.70,NNE,33,3.0,13.0,61,0.00,,,0.00,0,weatherlink.com 1.10,2013-02-17 06:38:00,
2013-02-17 01:54:00,23.8,11.0,29.71,NNE,24,6.0,16.0,59,0.00,,,0.00,0,weatherlink.com 1.10,2013-02-17 06:54:00,
2013-02-17 02:10:00,23.4,11.0,29.68,NE,42,3.0,10.0,59,0.00,,,0.00,0,weatherlink.com 1.10,2013-02-17 07:10:00,
2013-02-17 02:28:00,23.0,10.0,29.67,East,93,10.0,12.0,58,0.00,,,0.00,0,weatherlink.com 1.10,2013-02-17 07:28:00,
2013-02-17 02:44:00,22.7,10.0,29.68,North,355,4.0,12.0,58,0.00,,,0.00,0,weatherlink.com 1.10,2013-02-17 07:44:00,
2013-02-17 03:00:00,22.6,9.0,29.68,NE,36,2.0,11.0,55,0.00,,,0.00,0,weatherlink.com 1.10,2013-02-17 08:00:00,
2013-02-17 03:16:00,22.5,8.0,29.67,North,355,5.0,9.0,55,0.00,,,0.00,0,weatherlink.com 1.10,2013-02-17 08:16:00,
2013-02-17 03:33:00,22.3,8.0,29.66,North,355,5.0,13.0,54,0.00,,,0.00,0,weatherlink.com 1.10,2013-02-17 08:33:00,
2013-02-17 03:50:00,21.9,7.0,29.66,NW,324,3.0,15.0,53,0.00,,,0.00,0,weatherlink.com 1.10,2013-02-17 08:50:00,
2013-02-17 04:07:00,21.5,7.0,29.66,North,360,8.0,10.0,53,0.00,,,0.00,0,weatherlink.com 1.10,2013-02-17 09:07:00,
2013-02-17 04:22:00,21.1,7.0,29.65,NNW,344,9.0,13.0,54,0.00,,,0.00,0,weatherlink.com 1.10,2013-02-17 09:22:00,
2013-02-17 04:39:00,20.2,7.0,29.66,North,11,5.0,15.0,56,0.00,,,0.00,0,weatherlink.com 1.10,2013-02-17 09:39:00,
2013-02-17 04:56:00,19.6,7.0,29.65,NNW,329,6.0,18.0,57,0.00,,,0.00,0,weatherlink.com 1.10,2013-02-17 09:56:00,
2013-02-17 05:12:00,19.2,6.0,29.65,North,350,10.0,16.0,57,0.00,,,0.00,0,weatherlink.com 1.10,2013-02-17 10:12:00,
2013-02-17 05:29:00,18.9,6.0,29.65,North,355,5.0,14.0,58,0.00,,,0.00,0,weatherlink.com 1.10,2013-02-17 10:29:00,
2013-02-17 05:45:00,18.6,6.0,29.63,North,349,5.0,15.0,59,0.00,,,0.00,0,weatherlink.com 1.10,2013-02-17 10:45:00,
2013-02-17 06:01:00,18.2,6.0,29.62,NNE,20,8.0,16.0,59,0.00,,,0.00,0,weatherlink.com 1.10,2013-02-17 11:01:00,
2013-02-17 06:18:00,18.0,5.0,29.63,North,360,8.0,17.0,58,0.00,,,0.00,0,weatherlink.com 1.10,2013-02-17 11:18:00,
2013-02-17 06:35:00,17.7,5.0,29.63,NNW,336,4.0,21.0,57,0.00,,,0.00,0,weatherlink.com 1.10,2013-02-17 11:35:00,
2013-02-17 06:52:00,17.5,5.0,29.61,North,5,9.0,22.0,57,0.00,,,0.00,0,weatherlink.com 1.10,2013-02-17 11:52:00,
2013-02-17 07:07:00,17.1,4.0,29.61,North,5,8.0,21.0,57,0.00,,,0.00,9,weatherlink.com 1.10,2013-02-17 12:07:00,
2013-02-17 07:24:00,17.1,5.0,29.61,NW,322,6.0,19.0,59,0.00,,,0.00,21,weatherlink.com 1.10,2013-02-17 12:24:00,
2013-02-17 07:40:00,16.9,5.0,29.60,NW,309,3.0,21.0,61,0.00,,,0.00,33,weatherlink.com 1.10,2013-02-17 12:40:00,
2013-02-17 07:57:00,16.7,6.0,29.60,North,349,18.0,19.0,62,0.00,,,0.00,49,weatherlink.com 1.10,2013-02-17 12:57:00,
2013-02-17 08:14:00,16.6,6.0,29.60,North,11,7.0,24.0,62,0.00,,,0.00,62,weatherlink.com 1.10,2013-02-17 13:14:00,
2013-02-17 08:29:00,16.7,6.0,29.61,NNE,29,8.0,25.0,62,0.00,,,0.00,88,weatherlink.com 1.10,2013-02-17 13:29:00,
2013-02-17 08:46:00,16.8,5.0,29.60,North,5,9.0,24.0,61,0.00,,,0.00,109,weatherlink.com 1.10,2013-02-17 13:46:00,
2013-02-17 09:03:00,16.9,6.0,29.59,NW,311,7.0,21.0,62,0.00,,,0.00,142,weatherlink.com 1.10,2013-02-17 14:03:00,
2013-02-17 09:20:00,17.2,6.0,29.58,NW,310,20.0,25.0,62,0.00,,,0.00,181,weatherlink.com 1.10,2013-02-17 14:20:00,
2013-02-17 09:37:00,16.9,6.0,29.56,North,355,10.0,27.0,62,0.00,,,0.00,241,weatherlink.com 1.10,2013-02-17 14:37:00,
2013-02-17 09:52:00,17.3,6.0,29.58,North,9,7.0,26.0,62,0.00,,,0.00,271,weatherlink.com 1.10,2013-02-17 14:52:00,
2013-02-17 10:09:00,17.7,6.0,29.57,NNE,22,15.0,25.0,60,0.00,,,0.00,281,weatherlink.com 1.10,2013-02-17 15:09:00,
2013-02-17 10:26:00,17.7,6.0,29.57,NNW,338,10.0,23.0,60,0.00,,,0.00,301,weatherlink.com 1.10,2013-02-17 15:26:00,
2013-02-17 10:43:00,17.9,6.0,29.59,North,360,9.0,24.0,61,0.00,,,0.00,306,weatherlink.com 1.10,2013-02-17 15:43:00,
2013-02-17 10:59:00,18.0,6.0,29.59,NW,323,15.0,27.0,59,0.00,,,0.00,336,weatherlink.com 1.10,2013-02-17 15:59:00,
2013-02-17 11:15:00,18.4,6.0,29.59,NNW,340,7.0,27.0,59,0.00,,,0.00,348,weatherlink.com 1.10,2013-02-17 16:15:00,
2013-02-17 11:32:00,18.8,6.0,29.59,NW,310,13.0,22.0,58,0.00,,,0.00,345,weatherlink.com 1.10,2013-02-17 16:32:00,
2013-02-17 11:49:00,19.2,5.0,29.58,NNE,22,11.0,28.0,54,0.00,,,0.00,411,weatherlink.com 1.10,2013-02-17 16:49:00,
2013-02-17 12:05:00,19.9,5.0,29.58,North,5,10.0,28.0,52,0.00,,,0.00,464,weatherlink.com 1.10,2013-02-17 17:05:00,
2013-02-17 12:22:00,20.4,4.0,29.58,WNW,298,20.0,27.0,49,0.00,,,0.00,439,weatherlink.com 1.10,2013-02-17 17:22:00,
2013-02-17 12:38:00,19.9,4.0,29.58,WNW,287,12.0,33.0,50,0.00,,,0.00,380,weatherlink.com 1.10,2013-02-17 17:38:00,
2013-02-17 12:54:00,20.9,4.0,29.59,WNW,298,8.0,31.0,49,0.01,,,0.01,524,weatherlink.com 1.10,2013-02-17 17:54:00,
2013-02-17 13:11:00,21.5,4.0,29.59,NNW,348,14.0,30.0,47,0.01,,,0.01,520,weatherlink.com 1.10,2013-02-17 18:11:00,
2013-02-17 13:28:00,21.3,3.0,29.59,NW,310,10.0,27.0,45,0.01,,,0.01,404,weatherlink.com 1.10,2013-02-17 18:28:00,
2013-02-17 13:43:00,21.5,3.0,29.59,NW,323,12.0,31.0,45,0.01,,,0.01,438,weatherlink.com 1.10,2013-02-17 18:43:00,
2013-02-17 14:00:00,21.6,3.0,29.60,WNW,302,23.0,32.0,45,0.00,,,0.01,339,weatherlink.com 1.10,2013-02-17 19:00:00,
2013-02-17 14:17:00,21.5,3.0,29.60,NW,321,12.0,28.0,44,0.00,,,0.01,264,weatherlink.com 1.10,2013-02-17 19:17:00,
2013-02-17 14:34:00,21.7,2.0,29.61,NNW,341,14.0,31.0,42,0.00,,,0.01,392,weatherlink.com 1.10,2013-02-17 19:34:00,
2013-02-17 14:50:00,22.7,3.0,29.61,NW,313,18.0,28.0,42,0.00,,,0.01,278,weatherlink.com 1.10,2013-02-17 19:50:00,
2013-02-17 15:06:00,21.6,3.0,29.62,NW,323,18.0,28.0,44,0.00,,,0.01,223,weatherlink.com 1.10,2013-02-17 20:06:00,
2013-02-17 15:22:00,21.3,3.0,29.63,NW,309,20.0,33.0,45,0.00,,,0.01,179,weatherlink.com 1.10,2013-02-17 20:22:00,
2013-02-17 15:39:00,21.2,2.0,29.62,WNW,299,15.0,29.0,44,0.00,,,0.01,155,weatherlink.com 1.10,2013-02-17 20:39:00,
2013-02-17 15:56:00,21.0,2.0,29.64,WNW,296,10.0,30.0,44,0.00,,,0.01,134,weatherlink.com 1.10,2013-02-17 20:56:00,
2013-02-17 16:11:00,20.3,2.0,29.65,NW,306,25.0,37.0,44,0.00,,,0.01,104,weatherlink.com 1.10,2013-02-17 21:11:00,
2013-02-17 16:28:00,19.9,2.0,29.66,NW,313,17.0,38.0,46,0.00,,,0.01,77,weatherlink.com 1.10,2013-02-17 21:28:00,
2013-02-17 16:45:00,19.4,3.0,29.67,NNW,331,12.0,32.0,49,0.00,,,0.01,51,weatherlink.com 1.10,2013-02-17 21:45:00,
2013-02-17 17:01:00,19.1,2.0,29.68,NNW,329,6.0,19.0,48,0.00,,,0.01,28,weatherlink.com 1.10,2013-02-17 22:01:00,
2013-02-17 17:18:00,18.6,2.0,29.69,NNW,339,11.0,30.0,49,0.00,,,0.01,12,weatherlink.com 1.10,2013-02-17 22:18:00,
2013-02-17 17:34:00,18.0,2.0,29.71,WNW,302,23.0,31.0,50,0.00,,,0.01,5,weatherlink.com 1.10,2013-02-17 22:34:00,
2013-02-17 17:51:00,17.3,2.0,29.72,WNW,288,9.0,34.0,50,0.00,,,0.01,0,weatherlink.com 1.10,2013-02-17 22:51:00,
2013-02-17 18:07:00,16.7,2.0,29.73,NW,326,19.0,30.0,52,0.00,,,0.01,0,weatherlink.com 1.10,2013-02-17 23:07:00,
2013-02-17 18:23:00,16.1,2.0,29.72,WNW,293,19.0,32.0,54,0.00,,,0.01,0,weatherlink.com 1.10,2013-02-17 23:23:00,
2013-02-17 18:40:00,15.5,1.0,29.72,NW,317,13.0,33.0,54,0.00,,,0.01,0,weatherlink.com 1.10,2013-02-17 23:40:00,
2013-02-17 18:56:00,15.0,2.0,29.72,NNE,12,12.0,38.0,56,0.00,,,0.01,0,weatherlink.com 1.10,2013-02-17 23:56:00,
2013-02-17 19:13:00,14.5,2.0,29.73,North,5,12.0,35.0,57,0.00,,,0.01,0,weatherlink.com 1.10,2013-02-18 00:13:00,
2013-02-17 19:30:00,14.0,2.0,29.73,NW,309,28.0,35.0,58,0.00,,,0.01,0,weatherlink.com 1.10,2013-02-18 00:30:00,
2013-02-17 19:47:00,13.5,2.0,29.74,WNW,296,13.0,36.0,59,0.00,,,0.01,0,weatherlink.com 1.10,2013-02-18 00:47:00,
2013-02-17 20:04:00,13.2,1.0,29.75,NW,319,8.0,38.0,59,0.00,,,0.01,0,weatherlink.com 1.10,2013-02-18 01:04:00,
2013-02-17 20:19:00,12.8,2.0,29.75,NNW,341,12.0,40.0,61,0.00,,,0.01,0,weatherlink.com 1.10,2013-02-18 01:19:00,
2013-02-17 20:36:00,12.5,2.0,29.75,NW,326,24.0,36.0,62,0.00,,,0.01,0,weatherlink.com 1.10,2013-02-18 01:36:00,
2013-02-17 20:53:00,12.4,2.0,29.76,WNW,302,29.0,41.0,63,0.00,,,0.01,0,weatherlink.com 1.10,2013-02-18 01:53:00,
2013-02-17 21:09:00,12.2,2.0,29.77,NW,317,10.0,37.0,64,0.00,,,0.01,0,weatherlink.com 1.10,2013-02-18 02:09:00,
2013-02-17 21:26:00,12.2,2.0,29.78,NNW,331,18.0,36.0,64,0.00,,,0.01,0,weatherlink.com 1.10,2013-02-18 02:26:00,
2013-02-17 21:42:00,12.0,2.0,29.79,WNW,292,21.0,28.0,65,0.00,,,0.01,0,weatherlink.com 1.10,2013-02-18 02:42:00,
2013-02-17 21:58:00,11.9,2.0,29.80,NW,319,13.0,30.0,65,0.00,,,0.01,0,weatherlink.com 1.10,2013-02-18 02:58:00,
2013-02-17 22:15:00,11.7,2.0,29.81,NNW,330,11.0,22.0,66,0.00,,,0.01,0,weatherlink.com 1.10,2013-02-18 03:15:00,
2013-02-17 22:32:00,11.7,2.0,29.82,NW,306,5.0,27.0,66,0.00,,,0.01,0,weatherlink.com 1.10,2013-02-18 03:32:00,
2013-02-17 22:48:00,11.6,2.0,29.82,WNW,302,10.0,30.0,66,0.00,,,0.01,0,weatherlink.com 1.10,2013-02-18 03:48:00,
2013-02-17 23:04:00,11.6,2.0,29.82,NNW,337,22.0,28.0,66,0.00,,,0.01,0,weatherlink.com 1.10,2013-02-18 04:04:00,
2013-02-17 23:21:00,11.6,2.0,29.83,NW,323,9.0,23.0,66,0.00,,,0.01,0,weatherlink.com 1.10,2013-02-18 04:21:00,
2013-02-17 23:38:00,11.6,2.0,29.84,NW,308,20.0,26.0,66,0.00,,,0.01,0,weatherlink.com 1.10,2013-02-18 04:38:00,
2013-02-17 23:55:00,11.6,2.0,29.85,NNW,347,11.0,22.0,66,0.00,,,0.01,0,weatherlink.com 1.10,2013-02-18 04:55:00,